createdAt,value
2018-12-24T00:07:50.678Z,5
2018-12-24T00:17:57.787Z,4
2018-12-24T00:28:06.218Z,5
2018-12-24T00:38:12.741Z,3
2018-12-24T00:48:22.321Z,4
2018-12-24T00:58:29.716Z,4
2018-12-24T01:08:36.739Z,6
2018-12-24T01:18:45.906Z,2
2018-12-24T01:25:02.738Z,7
2018-12-24T01:35:10.035Z,3
2018-12-24T01:45:18.476Z,5
2018-12-24T01:55:26.397Z,3
2018-12-24T02:05:33.087Z,5
2018-12-24T02:15:37.766Z,2
2018-12-24T02:25:47.184Z,4
2018-12-24T02:35:56.940Z,3
2018-12-24T02:46:03.853Z,3
2018-12-24T02:56:13.108Z,3
2018-12-24T03:06:20.918Z,5
2018-12-24T03:13:37.555Z,6
2018-12-24T03:23:44.201Z,4
2018-12-24T03:33:54.541Z,4
2018-12-24T03:44:02.031Z,2
2018-12-24T03:54:10.389Z,4
2018-12-24T04:04:18.299Z,3
2018-12-24T04:14:27.130Z,4
2018-12-24T04:24:33.234Z,3
2018-12-24T04:34:40.270Z,3
2018-12-24T04:44:49.673Z,5
2018-12-24T04:54:56.792Z,15
2018-12-24T05:05:02.997Z,5
2018-12-24T05:15:15.370Z,3
2018-12-24T05:25:21.768Z,4
2018-12-24T05:35:29.017Z,2
2018-12-24T05:45:37.266Z,2
2018-12-24T05:55:44.308Z,5
2018-12-24T06:05:53.596Z,3
2018-12-24T06:15:59.573Z,4
2018-12-24T06:21:15.656Z,4
2018-12-24T06:31:21.910Z,3
2018-12-24T06:41:30.009Z,3
2018-12-24T06:44:44.504Z,4
2018-12-24T06:54:53.443Z,6
2018-12-24T07:05:00.981Z,3
2018-12-24T07:11:30.303Z,4
2018-12-24T07:21:36.205Z,5
2018-12-24T07:31:42.717Z,8
2018-12-24T07:41:49.010Z,5
2018-12-24T07:45:03.428Z,3
2018-12-24T07:56:26.535Z,6
2018-12-24T08:06:32.541Z,4
2018-12-24T08:16:40.234Z,5
2018-12-24T08:26:46.622Z,4
2018-12-24T08:36:55.175Z,3
2018-12-24T08:47:01.939Z,3
2018-12-24T08:57:09.153Z,6
2018-12-24T09:07:17.745Z,3
2018-12-24T09:17:27.074Z,6
2018-12-24T09:27:34.067Z,6
2018-12-24T09:37:43.118Z,6
2018-12-24T09:43:03.906Z,4
2018-12-24T09:53:05.923Z,3
2018-12-24T10:03:11.795Z,3
2018-12-24T10:13:18.749Z,2
2018-12-24T10:23:29.309Z,6
2018-12-24T10:33:36.184Z,3
2018-12-24T10:43:47.961Z,4
2018-12-24T10:53:58.161Z,5
2018-12-24T11:04:05.080Z,4
2018-12-24T11:09:26.801Z,5
2018-12-24T11:17:45.445Z,10
2018-12-24T11:27:46.581Z,5
2018-12-24T11:37:56.045Z,6
2018-12-24T11:43:16.306Z,6
2018-12-24T11:53:20.359Z,16
2018-12-24T12:03:28.785Z,5
2018-12-24T12:13:48.667Z,5
2018-12-24T12:22:14.923Z,5
2018-12-24T12:23:24.885Z,5
2018-12-24T12:33:32.386Z,4
2018-12-24T12:43:41.412Z,5
2018-12-24T12:44:51.686Z,6
2018-12-24T12:54:56.962Z,5
2018-12-24T13:05:03.428Z,4
2018-12-24T13:15:12.587Z,6
2018-12-24T13:23:35.301Z,4
2018-12-24T13:25:38.554Z,4
2018-12-24T13:35:39.591Z,4
2018-12-24T13:45:26.210Z,5
2018-12-24T13:55:02.022Z,4
2018-12-24T14:05:22.844Z,5
2018-12-24T14:15:07.747Z,5
2018-12-24T14:25:11.512Z,4
2018-12-24T14:35:08.113Z,5
2018-12-24T14:43:25.541Z,4
2018-12-24T14:48:22.484Z,6
2018-12-24T14:49:34.593Z,3
2018-12-24T14:59:37.898Z,4
2018-12-24T15:09:43.534Z,4
2018-12-24T15:19:51.473Z,5
2018-12-24T15:29:57.638Z,4
2018-12-24T15:40:08.728Z,5
2018-12-24T15:47:27.000Z,8
2018-12-24T15:57:34.738Z,4
2018-12-24T16:07:40.413Z,6
2018-12-24T16:17:46.389Z,6
2018-12-24T16:27:53.293Z,6
2018-12-24T16:37:57.999Z,8
2018-12-24T16:48:03.559Z,5
2018-12-24T16:54:20.436Z,6
2018-12-24T17:04:28.241Z,8
2018-12-24T17:14:34.930Z,8
2018-12-24T17:24:46.947Z,11
2018-12-24T17:34:55.885Z,12
2018-12-24T17:45:05.082Z,9
2018-12-24T17:55:10.620Z,10
2018-12-24T18:05:16.831Z,13
2018-12-24T18:15:25.477Z,9
2018-12-24T18:25:34.299Z,8
2018-12-24T18:35:40.952Z,8
2018-12-24T18:45:47.232Z,11
2018-12-24T18:55:53.949Z,8
2018-12-24T19:06:00.749Z,9
2018-12-24T19:16:07.113Z,11
2018-12-24T19:18:20.080Z,11
2018-12-24T19:28:29.038Z,10
2018-12-24T19:38:34.472Z,10
2018-12-24T19:48:41.466Z,13
2018-12-24T19:58:48.319Z,9
2018-12-24T20:08:54.001Z,8
2018-12-24T20:19:01.973Z,10
2018-12-24T20:29:09.438Z,10
2018-12-24T20:39:16.556Z,11
2018-12-24T20:49:26.158Z,9
2018-12-24T20:59:34.073Z,11
2018-12-24T21:09:40.047Z,12
2018-12-24T21:19:48.870Z,15
2018-12-24T21:29:54.777Z,12
2018-12-24T21:40:01.975Z,10
2018-12-24T21:50:09.169Z,13
2018-12-24T22:00:15.207Z,11
2018-12-24T22:10:23.018Z,13
2018-12-24T22:20:26.762Z,18
2018-12-24T22:30:33.552Z,16
2018-12-24T22:40:42.381Z,13
2018-12-24T22:50:49.159Z,14
2018-12-24T23:00:55.268Z,12
2018-12-24T23:11:02.799Z,14
2018-12-24T23:21:11.803Z,16
2018-12-24T23:31:21.622Z,12
2018-12-24T23:41:28.472Z,13
2018-12-24T23:51:35.570Z,13
